sensor_id;sensor_type;location;lat;lon;timestamp;P1;durP1;ratioP1;P2;durP2;ratioP2
8407;SDS011;4241;48.452;9.216;2023-06-26T00:00:50;489.00;;;253.33;;
8407;SDS011;4241;48.452;9.216;2023-06-26T00:03:17;489.33;;;251.73;;
8407;SDS011;4241;48.452;9.216;2023-06-26T00:05:45;487.27;;;250.80;;
8407;SDS011;4241;48.452;9.216;2023-06-26T00:08:12;493.20;;;259.97;;
8407;SDS011;4241;48.452;9.216;2023-06-26T00:10:39;487.03;;;247.97;;
8407;SDS011;4241;48.452;9.216;2023-06-26T00:13:06;488.60;;;252.53;;
8407;SDS011;4241;48.452;9.216;2023-06-26T00:15:34;493.57;;;258.63;;
8407;SDS011;4241;48.452;9.216;2023-06-26T00:18:02;488.90;;;252.43;;
8407;SDS011;4241;48.452;9.216;2023-06-26T00:20:29;488.70;;;251.70;;
8407;SDS011;4241;48.452;9.216;2023-06-26T00:22:59;487.53;;;249.17;;
8407;SDS011;4241;48.452;9.216;2023-06-26T00:25:26;492.50;;;254.27;;
8407;SDS011;4241;48.452;9.216;2023-06-26T00:27:53;487.03;;;248.47;;
8407;SDS011;4241;48.452;9.216;2023-06-26T00:30:20;487.20;;;247.20;;
8407;SDS011;4241;48.452;9.216;2023-06-26T00:32:48;486.87;;;246.13;;
8407;SDS011;4241;48.452;9.216;2023-06-26T00:35:16;489.30;;;250.63;;
8407;SDS011;4241;48.452;9.216;2023-06-26T00:37:43;487.47;;;247.77;;
8407;SDS011;4241;48.452;9.216;2023-06-26T00:40:10;485.27;;;244.27;;
8407;SDS011;4241;48.452;9.216;2023-06-26T00:42:37;485.83;;;241.43;;
8407;SDS011;4241;48.452;9.216;2023-06-26T00:45:05;485.73;;;242.40;;
8407;SDS011;4241;48.452;9.216;2023-06-26T00:47:32;485.17;;;242.57;;
8407;SDS011;4241;48.452;9.216;2023-06-26T00:50:00;486.30;;;241.80;;
8407;SDS011;4241;48.452;9.216;2023-06-26T00:52:28;483.23;;;237.83;;
8407;SDS011;4241;48.452;9.216;2023-06-26T00:54:55;485.10;;;242.33;;
8407;SDS011;4241;48.452;9.216;2023-06-26T00:57:22;485.80;;;242.67;;
8407;SDS011;4241;48.452;9.216;2023-06-26T00:59:49;484.40;;;239.53;;
8407;SDS011;4241;48.452;9.216;2023-06-26T01:02:17;486.50;;;243.77;;
8407;SDS011;4241;48.452;9.216;2023-06-26T01:04:45;484.07;;;236.07;;
8407;SDS011;4241;48.452;9.216;2023-06-26T01:07:13;485.03;;;238.83;;
8407;SDS011;4241;48.452;9.216;2023-06-26T01:09:43;484.20;;;235.27;;
8407;SDS011;4241;48.452;9.216;2023-06-26T01:12:11;483.37;;;235.03;;
8407;SDS011;4241;48.452;9.216;2023-06-26T01:14:38;484.50;;;236.33;;
8407;SDS011;4241;48.452;9.216;2023-06-26T01:17:06;484.87;;;239.10;;
8407;SDS011;4241;48.452;9.216;2023-06-26T01:19:37;486.37;;;239.73;;
8407;SDS011;4241;48.452;9.216;2023-06-26T01:22:08;483.50;;;238.67;;
8407;SDS011;4241;48.452;9.216;2023-06-26T01:24:44;485.67;;;234.77;;
8407;SDS011;4241;48.452;9.216;2023-06-26T01:27:18;484.40;;;234.37;;
8407;SDS011;4241;48.452;9.216;2023-06-26T01:29:46;483.97;;;235.30;;
8407;SDS011;4241;48.452;9.216;2023-06-26T01:32:14;483.33;;;236.00;;
8407;SDS011;4241;48.452;9.216;2023-06-26T01:34:42;482.73;;;234.80;;
8407;SDS011;4241;48.452;9.216;2023-06-26T01:37:10;482.63;;;230.90;;
8407;SDS011;4241;48.452;9.216;2023-06-26T01:39:37;486.73;;;236.47;;
8407;SDS011;4241;48.452;9.216;2023-06-26T01:42:04;487.17;;;236.90;;
8407;SDS011;4241;48.452;9.216;2023-06-26T01:44:35;483.13;;;231.23;;
8407;SDS011;4241;48.452;9.216;2023-06-26T01:47:04;481.33;;;224.80;;
8407;SDS011;4241;48.452;9.216;2023-06-26T01:49:35;483.70;;;229.97;;
8407;SDS011;4241;48.452;9.216;2023-06-26T01:52:06;483.17;;;232.03;;
8407;SDS011;4241;48.452;9.216;2023-06-26T01:54:36;483.37;;;229.43;;
8407;SDS011;4241;48.452;9.216;2023-06-26T01:57:04;483.10;;;231.40;;
8407;SDS011;4241;48.452;9.216;2023-06-26T01:59:34;488.60;;;234.27;;
8407;SDS011;4241;48.452;9.216;2023-06-26T02:02:01;481.03;;;226.77;;
8407;SDS011;4241;48.452;9.216;2023-06-26T02:04:28;482.37;;;227.27;;
8407;SDS011;4241;48.452;9.216;2023-06-26T02:06:55;481.40;;;226.70;;
8407;SDS011;4241;48.452;9.216;2023-06-26T02:09:22;483.13;;;226.57;;
8407;SDS011;4241;48.452;9.216;2023-06-26T02:11:49;481.40;;;224.67;;
8407;SDS011;4241;48.452;9.216;2023-06-26T02:14:16;484.00;;;230.47;;
8407;SDS011;4241;48.452;9.216;2023-06-26T02:16:45;481.67;;;225.37;;
8407;SDS011;4241;48.452;9.216;2023-06-26T02:19:12;482.30;;;225.90;;
8407;SDS011;4241;48.452;9.216;2023-06-26T02:21:46;481.03;;;224.00;;
8407;SDS011;4241;48.452;9.216;2023-06-26T02:24:13;479.30;;;220.37;;
8407;SDS011;4241;48.452;9.216;2023-06-26T02:26:40;480.90;;;222.37;;
8407;SDS011;4241;48.452;9.216;2023-06-26T02:29:07;482.03;;;225.37;;
8407;SDS011;4241;48.452;9.216;2023-06-26T02:31:35;481.33;;;222.90;;
8407;SDS011;4241;48.452;9.216;2023-06-26T02:34:03;483.10;;;226.57;;
8407;SDS011;4241;48.452;9.216;2023-06-26T02:36:31;480.90;;;228.57;;
8407;SDS011;4241;48.452;9.216;2023-06-26T02:38:58;478.90;;;222.07;;
8407;SDS011;4241;48.452;9.216;2023-06-26T02:41:25;481.90;;;228.33;;
8407;SDS011;4241;48.452;9.216;2023-06-26T02:43:52;479.77;;;223.17;;
8407;SDS011;4241;48.452;9.216;2023-06-26T02:46:19;480.77;;;224.30;;
8407;SDS011;4241;48.452;9.216;2023-06-26T02:48:46;480.40;;;222.60;;
8407;SDS011;4241;48.452;9.216;2023-06-26T02:51:15;478.23;;;220.37;;
8407;SDS011;4241;48.452;9.216;2023-06-26T02:53:42;481.03;;;222.70;;
8407;SDS011;4241;48.452;9.216;2023-06-26T02:56:09;488.07;;;230.57;;
8407;SDS011;4241;48.452;9.216;2023-06-26T02:58:36;480.73;;;222.50;;
8407;SDS011;4241;48.452;9.216;2023-06-26T03:01:03;480.03;;;221.97;;
8407;SDS011;4241;48.452;9.216;2023-06-26T03:03:30;479.37;;;217.90;;
8407;SDS011;4241;48.452;9.216;2023-06-26T03:06:05;479.17;;;219.27;;
8407;SDS011;4241;48.452;9.216;2023-06-26T03:08:35;480.73;;;222.30;;
8407;SDS011;4241;48.452;9.216;2023-06-26T03:11:03;480.83;;;223.53;;
8407;SDS011;4241;48.452;9.216;2023-06-26T03:13:30;479.93;;;220.47;;
8407;SDS011;4241;48.452;9.216;2023-06-26T03:15:57;480.37;;;220.20;;
8407;SDS011;4241;48.452;9.216;2023-06-26T03:18:24;479.87;;;220.63;;
8407;SDS011;4241;48.452;9.216;2023-06-26T03:20:51;482.10;;;224.70;;
8407;SDS011;4241;48.452;9.216;2023-06-26T03:23:19;480.43;;;221.93;;
8407;SDS011;4241;48.452;9.216;2023-06-26T03:25:48;482.40;;;223.43;;
8407;SDS011;4241;48.452;9.216;2023-06-26T03:28:16;480.27;;;222.47;;
8407;SDS011;4241;48.452;9.216;2023-06-26T03:30:43;479.77;;;219.97;;
8407;SDS011;4241;48.452;9.216;2023-06-26T03:33:10;479.80;;;218.87;;
8407;SDS011;4241;48.452;9.216;2023-06-26T03:35:38;483.30;;;222.20;;
8407;SDS011;4241;48.452;9.216;2023-06-26T03:38:05;479.43;;;216.27;;
8407;SDS011;4241;48.452;9.216;2023-06-26T03:40:32;480.20;;;218.40;;
8407;SDS011;4241;48.452;9.216;2023-06-26T03:43:00;480.67;;;216.27;;
8407;SDS011;4241;48.452;9.216;2023-06-26T03:45:28;485.63;;;222.60;;
8407;SDS011;4241;48.452;9.216;2023-06-26T03:47:55;478.83;;;216.83;;
8407;SDS011;4241;48.452;9.216;2023-06-26T03:50:22;477.67;;;211.00;;
8407;SDS011;4241;48.452;9.216;2023-06-26T03:52:49;477.57;;;209.87;;
8407;SDS011;4241;48.452;9.216;2023-06-26T03:55:16;480.93;;;215.77;;
8407;SDS011;4241;48.452;9.216;2023-06-26T03:57:44;475.03;;;207.90;;
8407;SDS011;4241;48.452;9.216;2023-06-26T04:00:13;475.87;;;208.27;;
8407;SDS011;4241;48.452;9.216;2023-06-26T04:02:40;477.50;;;213.63;;
8407;SDS011;4241;48.452;9.216;2023-06-26T04:05:07;479.93;;;218.13;;
8407;SDS011;4241;48.452;9.216;2023-06-26T04:07:34;479.07;;;215.63;;
8407;SDS011;4241;48.452;9.216;2023-06-26T04:10:02;479.73;;;215.40;;
8407;SDS011;4241;48.452;9.216;2023-06-26T04:12:29;478.30;;;215.23;;
8407;SDS011;4241;48.452;9.216;2023-06-26T04:14:56;477.90;;;214.57;;
8407;SDS011;4241;48.452;9.216;2023-06-26T04:17:24;476.83;;;212.07;;
8407;SDS011;4241;48.452;9.216;2023-06-26T04:19:51;481.43;;;220.87;;
8407;SDS011;4241;48.452;9.216;2023-06-26T04:22:18;479.90;;;218.60;;
8407;SDS011;4241;48.452;9.216;2023-06-26T04:24:46;478.30;;;215.00;;
8407;SDS011;4241;48.452;9.216;2023-06-26T04:27:13;475.93;;;210.10;;
8407;SDS011;4241;48.452;9.216;2023-06-26T04:29:40;482.00;;;219.13;;
8407;SDS011;4241;48.452;9.216;2023-06-26T04:32:07;478.57;;;218.80;;
8407;SDS011;4241;48.452;9.216;2023-06-26T04:34:35;478.40;;;212.90;;
8407;SDS011;4241;48.452;9.216;2023-06-26T04:37:06;479.47;;;216.03;;
8407;SDS011;4241;48.452;9.216;2023-06-26T04:39:34;477.40;;;213.87;;
8407;SDS011;4241;48.452;9.216;2023-06-26T04:42:03;478.70;;;213.57;;
8407;SDS011;4241;48.452;9.216;2023-06-26T04:44:30;477.90;;;214.10;;
8407;SDS011;4241;48.452;9.216;2023-06-26T04:46:57;476.33;;;211.60;;
8407;SDS011;4241;48.452;9.216;2023-06-26T04:49:24;478.23;;;214.93;;
8407;SDS011;4241;48.452;9.216;2023-06-26T04:51:54;481.40;;;219.43;;
8407;SDS011;4241;48.452;9.216;2023-06-26T04:54:21;478.87;;;218.33;;
8407;SDS011;4241;48.452;9.216;2023-06-26T04:56:48;477.07;;;216.13;;
8407;SDS011;4241;48.452;9.216;2023-06-26T04:59:15;478.90;;;216.90;;
8407;SDS011;4241;48.452;9.216;2023-06-26T05:01:42;477.33;;;215.20;;
8407;SDS011;4241;48.452;9.216;2023-06-26T05:04:13;482.83;;;220.63;;
8407;SDS011;4241;48.452;9.216;2023-06-26T05:06:40;479.10;;;217.50;;
8407;SDS011;4241;48.452;9.216;2023-06-26T05:09:09;483.10;;;221.63;;
8407;SDS011;4241;48.452;9.216;2023-06-26T05:11:37;480.40;;;218.53;;
8407;SDS011;4241;48.452;9.216;2023-06-26T05:14:04;481.87;;;218.70;;
8407;SDS011;4241;48.452;9.216;2023-06-26T05:16:32;479.03;;;219.30;;
8407;SDS011;4241;48.452;9.216;2023-06-26T05:18:59;477.27;;;215.20;;
8407;SDS011;4241;48.452;9.216;2023-06-26T05:21:27;482.20;;;227.93;;
8407;SDS011;4241;48.452;9.216;2023-06-26T05:23:55;481.03;;;222.70;;
8407;SDS011;4241;48.452;9.216;2023-06-26T05:26:25;479.27;;;219.37;;
8407;SDS011;4241;48.452;9.216;2023-06-26T05:28:52;480.87;;;222.80;;
8407;SDS011;4241;48.452;9.216;2023-06-26T05:31:20;479.77;;;218.97;;
8407;SDS011;4241;48.452;9.216;2023-06-26T05:33:47;480.90;;;226.37;;
8407;SDS011;4241;48.452;9.216;2023-06-26T05:36:16;479.93;;;223.60;;
8407;SDS011;4241;48.452;9.216;2023-06-26T05:38:43;481.37;;;227.33;;
8407;SDS011;4241;48.452;9.216;2023-06-26T05:41:10;479.37;;;224.87;;
8407;SDS011;4241;48.452;9.216;2023-06-26T05:43:39;480.57;;;224.50;;
8407;SDS011;4241;48.452;9.216;2023-06-26T05:46:06;480.80;;;225.47;;
8407;SDS011;4241;48.452;9.216;2023-06-26T05:48:33;480.37;;;227.63;;
8407;SDS011;4241;48.452;9.216;2023-06-26T05:51:00;481.10;;;229.63;;
8407;SDS011;4241;48.452;9.216;2023-06-26T05:53:29;482.10;;;231.47;;
8407;SDS011;4241;48.452;9.216;2023-06-26T05:55:56;480.60;;;231.97;;
8407;SDS011;4241;48.452;9.216;2023-06-26T05:58:24;484.77;;;236.70;;
8407;SDS011;4241;48.452;9.216;2023-06-26T06:00:54;482.70;;;234.83;;
8407;SDS011;4241;48.452;9.216;2023-06-26T06:03:21;481.77;;;235.70;;
8407;SDS011;4241;48.452;9.216;2023-06-26T06:05:48;484.97;;;242.30;;
8407;SDS011;4241;48.452;9.216;2023-06-26T06:08:16;485.57;;;246.37;;
8407;SDS011;4241;48.452;9.216;2023-06-26T06:10:43;487.37;;;247.80;;
8407;SDS011;4241;48.452;9.216;2023-06-26T06:13:10;486.57;;;250.23;;
8407;SDS011;4241;48.452;9.216;2023-06-26T06:15:37;490.70;;;256.57;;
8407;SDS011;4241;48.452;9.216;2023-06-26T06:18:05;488.47;;;257.40;;
8407;SDS011;4241;48.452;9.216;2023-06-26T06:20:33;490.97;;;261.50;;
8407;SDS011;4241;48.452;9.216;2023-06-26T06:23:00;488.63;;;263.70;;
8407;SDS011;4241;48.452;9.216;2023-06-26T06:25:27;497.43;;;273.93;;
8407;SDS011;4241;48.452;9.216;2023-06-26T06:27:54;493.70;;;271.87;;
8407;SDS011;4241;48.452;9.216;2023-06-26T06:30:21;495.17;;;277.07;;
8407;SDS011;4241;48.452;9.216;2023-06-26T06:32:48;494.87;;;278.97;;
8407;SDS011;4241;48.452;9.216;2023-06-26T06:35:19;492.43;;;276.60;;
8407;SDS011;4241;48.452;9.216;2023-06-26T06:37:46;494.27;;;283.43;;
8407;SDS011;4241;48.452;9.216;2023-06-26T06:40:14;495.87;;;286.93;;
8407;SDS011;4241;48.452;9.216;2023-06-26T06:42:41;494.50;;;289.13;;
8407;SDS011;4241;48.452;9.216;2023-06-26T06:45:09;497.30;;;292.60;;
8407;SDS011;4241;48.452;9.216;2023-06-26T06:47:36;497.00;;;297.23;;
8407;SDS011;4241;48.452;9.216;2023-06-26T06:50:04;497.90;;;300.50;;
8407;SDS011;4241;48.452;9.216;2023-06-26T06:52:35;498.20;;;304.50;;
8407;SDS011;4241;48.452;9.216;2023-06-26T06:55:03;498.13;;;305.90;;
8407;SDS011;4241;48.452;9.216;2023-06-26T06:57:33;497.77;;;311.20;;
8407;SDS011;4241;48.452;9.216;2023-06-26T07:00:02;498.90;;;313.43;;
8407;SDS011;4241;48.452;9.216;2023-06-26T07:02:30;498.43;;;315.80;;
8407;SDS011;4241;48.452;9.216;2023-06-26T07:04:57;500.97;;;320.60;;
8407;SDS011;4241;48.452;9.216;2023-06-26T07:07:27;500.90;;;327.60;;
8407;SDS011;4241;48.452;9.216;2023-06-26T07:09:57;504.90;;;334.53;;
8407;SDS011;4241;48.452;9.216;2023-06-26T07:12:24;503.30;;;337.07;;
8407;SDS011;4241;48.452;9.216;2023-06-26T07:14:51;502.53;;;338.33;;
8407;SDS011;4241;48.452;9.216;2023-06-26T07:17:19;505.53;;;343.27;;
8407;SDS011;4241;48.452;9.216;2023-06-26T07:19:46;505.47;;;347.50;;
8407;SDS011;4241;48.452;9.216;2023-06-26T07:22:13;508.07;;;352.77;;
8407;SDS011;4241;48.452;9.216;2023-06-26T07:24:40;505.43;;;350.10;;
8407;SDS011;4241;48.452;9.216;2023-06-26T07:27:09;507.17;;;354.07;;
8407;SDS011;4241;48.452;9.216;2023-06-26T07:29:36;509.97;;;356.40;;
8407;SDS011;4241;48.452;9.216;2023-06-26T07:32:03;508.50;;;358.73;;
8407;SDS011;4241;48.452;9.216;2023-06-26T07:34:30;507.37;;;355.33;;
8407;SDS011;4241;48.452;9.216;2023-06-26T07:36:58;506.77;;;356.40;;
8407;SDS011;4241;48.452;9.216;2023-06-26T07:39:25;507.93;;;363.80;;
8407;SDS011;4241;48.452;9.216;2023-06-26T07:41:52;507.80;;;361.93;;
8407;SDS011;4241;48.452;9.216;2023-06-26T07:44:21;507.50;;;361.20;;
8407;SDS011;4241;48.452;9.216;2023-06-26T07:46:48;507.83;;;367.60;;
8407;SDS011;4241;48.452;9.216;2023-06-26T07:49:15;506.07;;;363.80;;
8407;SDS011;4241;48.452;9.216;2023-06-26T07:51:42;507.27;;;368.20;;
8407;SDS011;4241;48.452;9.216;2023-06-26T07:54:09;506.43;;;362.60;;
8407;SDS011;4241;48.452;9.216;2023-06-26T07:56:52;507.33;;;366.83;;
8407;SDS011;4241;48.452;9.216;2023-06-26T07:59:21;506.77;;;368.50;;
8407;SDS011;4241;48.452;9.216;2023-06-26T08:01:49;505.33;;;365.47;;
8407;SDS011;4241;48.452;9.216;2023-06-26T08:04:17;505.53;;;368.30;;
8407;SDS011;4241;48.452;9.216;2023-06-26T08:06:44;511.33;;;381.40;;
8407;SDS011;4241;48.452;9.216;2023-06-26T08:09:12;508.63;;;376.80;;
8407;SDS011;4241;48.452;9.216;2023-06-26T08:11:39;508.93;;;380.20;;
8407;SDS011;4241;48.452;9.216;2023-06-26T08:14:06;507.83;;;381.97;;
8407;SDS011;4241;48.452;9.216;2023-06-26T08:16:34;508.07;;;381.23;;
8407;SDS011;4241;48.452;9.216;2023-06-26T08:19:01;506.70;;;377.77;;
8407;SDS011;4241;48.452;9.216;2023-06-26T08:21:28;510.17;;;384.47;;
8407;SDS011;4241;48.452;9.216;2023-06-26T08:23:56;507.87;;;383.77;;
8407;SDS011;4241;48.452;9.216;2023-06-26T08:26:23;511.30;;;387.93;;
8407;SDS011;4241;48.452;9.216;2023-06-26T08:28:50;510.07;;;388.13;;
8407;SDS011;4241;48.452;9.216;2023-06-26T08:31:17;510.57;;;394.27;;
8407;SDS011;4241;48.452;9.216;2023-06-26T08:33:45;509.30;;;390.20;;
8407;SDS011;4241;48.452;9.216;2023-06-26T08:36:13;512.33;;;396.50;;
8407;SDS011;4241;48.452;9.216;2023-06-26T08:38:40;512.53;;;399.83;;
8407;SDS011;4241;48.452;9.216;2023-06-26T08:41:07;511.30;;;397.90;;
8407;SDS011;4241;48.452;9.216;2023-06-26T08:43:35;512.77;;;402.23;;
8407;SDS011;4241;48.452;9.216;2023-06-26T08:46:02;513.07;;;406.63;;
8407;SDS011;4241;48.452;9.216;2023-06-26T08:48:29;513.87;;;407.70;;
8407;SDS011;4241;48.452;9.216;2023-06-26T08:51:00;512.53;;;406.10;;
8407;SDS011;4241;48.452;9.216;2023-06-26T08:53:29;514.77;;;411.00;;
8407;SDS011;4241;48.452;9.216;2023-06-26T08:55:59;514.40;;;412.30;;
8407;SDS011;4241;48.452;9.216;2023-06-26T08:58:27;513.42;;;414.42;;
8407;SDS011;4241;48.452;9.216;2023-06-26T09:00:54;513.15;;;412.65;;
8407;SDS011;4241;48.452;9.216;2023-06-26T09:03:21;513.87;;;416.27;;
8407;SDS011;4241;48.452;9.216;2023-06-26T09:05:50;514.30;;;419.05;;
8407;SDS011;4241;48.452;9.216;2023-06-26T09:08:18;516.40;;;419.70;;
8407;SDS011;4241;48.452;9.216;2023-06-26T09:10:45;512.53;;;417.88;;
8407;SDS011;4241;48.452;9.216;2023-06-26T09:13:12;514.33;;;420.85;;
8407;SDS011;4241;48.452;9.216;2023-06-26T09:15:42;514.42;;;423.45;;
8407;SDS011;4241;48.452;9.216;2023-06-26T09:18:09;513.45;;;421.55;;
8407;SDS011;4241;48.452;9.216;2023-06-26T09:20:36;514.85;;;426.67;;
8407;SDS011;4241;48.452;9.216;2023-06-26T09:23:04;513.97;;;421.88;;
8407;SDS011;4241;48.452;9.216;2023-06-26T09:25:32;517.70;;;428.45;;
8407;SDS011;4241;48.452;9.216;2023-06-26T09:28:00;514.92;;;427.58;;
8407;SDS011;4241;48.452;9.216;2023-06-26T09:30:27;513.88;;;424.60;;
8407;SDS011;4241;48.452;9.216;2023-06-26T09:32:55;514.88;;;425.75;;
8407;SDS011;4241;48.452;9.216;2023-06-26T09:35:22;518.88;;;434.85;;
8407;SDS011;4241;48.452;9.216;2023-06-26T09:37:50;516.65;;;434.55;;
8407;SDS011;4241;48.452;9.216;2023-06-26T09:40:17;518.95;;;440.00;;
8407;SDS011;4241;48.452;9.216;2023-06-26T09:42:46;516.63;;;436.85;;
8407;SDS011;4241;48.452;9.216;2023-06-26T09:45:17;517.85;;;437.52;;
8407;SDS011;4241;48.452;9.216;2023-06-26T09:47:45;520.55;;;440.92;;
8407;SDS011;4241;48.452;9.216;2023-06-26T09:50:20;518.38;;;441.38;;
8407;SDS011;4241;48.452;9.216;2023-06-26T09:52:48;517.53;;;440.65;;
8407;SDS011;4241;48.452;9.216;2023-06-26T09:55:17;520.53;;;441.52;;
8407;SDS011;4241;48.452;9.216;2023-06-26T09:57:47;517.30;;;441.23;;
8407;SDS011;4241;48.452;9.216;2023-06-26T10:00:15;519.03;;;445.73;;
8407;SDS011;4241;48.452;9.216;2023-06-26T10:02:42;516.00;;;447.33;;
8407;SDS011;4241;48.452;9.216;2023-06-26T10:05:09;515.22;;;439.33;;
8407;SDS011;4241;48.452;9.216;2023-06-26T10:07:37;515.95;;;439.90;;
8407;SDS011;4241;48.452;9.216;2023-06-26T10:10:05;514.40;;;438.73;;
8407;SDS011;4241;48.452;9.216;2023-06-26T10:12:32;512.08;;;427.52;;
8407;SDS011;4241;48.452;9.216;2023-06-26T10:15:02;511.02;;;423.60;;
8407;SDS011;4241;48.452;9.216;2023-06-26T10:17:30;512.80;;;428.88;;
8407;SDS011;4241;48.452;9.216;2023-06-26T10:19:59;513.20;;;422.50;;
8407;SDS011;4241;48.452;9.216;2023-06-26T10:22:29;518.13;;;435.23;;
8407;SDS011;4241;48.452;9.216;2023-06-26T10:24:58;517.97;;;436.52;;
8407;SDS011;4241;48.452;9.216;2023-06-26T10:27:27;516.95;;;435.02;;
8407;SDS011;4241;48.452;9.216;2023-06-26T10:29:55;516.10;;;432.83;;
8407;SDS011;4241;48.452;9.216;2023-06-26T10:32:25;518.55;;;433.92;;
8407;SDS011;4241;48.452;9.216;2023-06-26T10:34:52;517.00;;;429.65;;
8407;SDS011;4241;48.452;9.216;2023-06-26T10:37:20;514.63;;;427.17;;
8407;SDS011;4241;48.452;9.216;2023-06-26T10:39:48;516.75;;;428.38;;
8407;SDS011;4241;48.452;9.216;2023-06-26T10:42:15;518.30;;;429.42;;
8407;SDS011;4241;48.452;9.216;2023-06-26T10:44:44;518.53;;;429.23;;
8407;SDS011;4241;48.452;9.216;2023-06-26T10:47:11;516.40;;;423.95;;
8407;SDS011;4241;48.452;9.216;2023-06-26T10:49:40;516.83;;;428.30;;
8407;SDS011;4241;48.452;9.216;2023-06-26T10:52:13;514.50;;;423.38;;
8407;SDS011;4241;48.452;9.216;2023-06-26T10:54:40;513.35;;;423.55;;
8407;SDS011;4241;48.452;9.216;2023-06-26T10:57:07;515.10;;;427.73;;
8407;SDS011;4241;48.452;9.216;2023-06-26T10:59:35;515.15;;;427.92;;
8407;SDS011;4241;48.452;9.216;2023-06-26T11:02:05;515.22;;;424.00;;
8407;SDS011;4241;48.452;9.216;2023-06-26T11:04:36;515.33;;;422.05;;
8407;SDS011;4241;48.452;9.216;2023-06-26T11:07:18;517.03;;;420.65;;
8407;SDS011;4241;48.452;9.216;2023-06-26T11:09:55;516.77;;;417.57;;
8407;SDS011;4241;48.452;9.216;2023-06-26T11:12:35;514.80;;;406.07;;
8407;SDS011;4241;48.452;9.216;2023-06-26T11:15:03;513.90;;;404.70;;
8407;SDS011;4241;48.452;9.216;2023-06-26T11:17:30;513.00;;;397.30;;
8407;SDS011;4241;48.452;9.216;2023-06-26T11:19:57;513.30;;;398.10;;
8407;SDS011;4241;48.452;9.216;2023-06-26T11:22:26;513.73;;;399.87;;
8407;SDS011;4241;48.452;9.216;2023-06-26T11:24:53;510.73;;;394.00;;
8407;SDS011;4241;48.452;9.216;2023-06-26T11:27:21;515.43;;;398.97;;
8407;SDS011;4241;48.452;9.216;2023-06-26T11:29:49;512.30;;;393.60;;
8407;SDS011;4241;48.452;9.216;2023-06-26T11:32:16;512.87;;;399.63;;
8407;SDS011;4241;48.452;9.216;2023-06-26T11:34:43;512.60;;;404.30;;
8407;SDS011;4241;48.452;9.216;2023-06-26T11:37:11;514.60;;;410.50;;
8407;SDS011;4241;48.452;9.216;2023-06-26T11:39:39;513.92;;;415.45;;
8407;SDS011;4241;48.452;9.216;2023-06-26T11:42:06;514.92;;;422.58;;
8407;SDS011;4241;48.452;9.216;2023-06-26T11:44:39;517.65;;;426.83;;
8407;SDS011;4241;48.452;9.216;2023-06-26T11:47:07;520.50;;;435.15;;
8407;SDS011;4241;48.452;9.216;2023-06-26T11:49:34;521.55;;;428.67;;
8407;SDS011;4241;48.452;9.216;2023-06-26T11:52:02;516.60;;;422.50;;
8407;SDS011;4241;48.452;9.216;2023-06-26T11:54:29;519.15;;;421.30;;
8407;SDS011;4241;48.452;9.216;2023-06-26T11:56:58;514.13;;;416.65;;
8407;SDS011;4241;48.452;9.216;2023-06-26T11:59:33;515.38;;;425.02;;
8407;SDS011;4241;48.452;9.216;2023-06-26T12:02:03;519.50;;;433.20;;
8407;SDS011;4241;48.452;9.216;2023-06-26T12:04:31;517.80;;;432.65;;
8407;SDS011;4241;48.452;9.216;2023-06-26T12:07:00;516.38;;;434.90;;
8407;SDS011;4241;48.452;9.216;2023-06-26T12:09:32;519.38;;;443.45;;
8407;SDS011;4241;48.452;9.216;2023-06-26T12:12:02;524.45;;;452.65;;
8407;SDS011;4241;48.452;9.216;2023-06-26T12:14:29;518.72;;;442.38;;
8407;SDS011;4241;48.452;9.216;2023-06-26T12:17:03;518.35;;;445.17;;
8407;SDS011;4241;48.452;9.216;2023-06-26T12:19:31;520.25;;;449.40;;
8407;SDS011;4241;48.452;9.216;2023-06-26T12:21:58;520.08;;;452.30;;
8407;SDS011;4241;48.452;9.216;2023-06-26T12:24:25;519.13;;;447.77;;
8407;SDS011;4241;48.452;9.216;2023-06-26T12:26:52;518.70;;;445.05;;
8407;SDS011;4241;48.452;9.216;2023-06-26T12:29:28;518.72;;;444.73;;
8407;SDS011;4241;48.452;9.216;2023-06-26T12:31:56;519.55;;;447.08;;
8407;SDS011;4241;48.452;9.216;2023-06-26T12:34:26;520.83;;;453.85;;
8407;SDS011;4241;48.452;9.216;2023-06-26T12:36:53;518.65;;;449.17;;
8407;SDS011;4241;48.452;9.216;2023-06-26T12:39:20;519.63;;;451.20;;
8407;SDS011;4241;48.452;9.216;2023-06-26T12:41:48;519.95;;;447.13;;
8407;SDS011;4241;48.452;9.216;2023-06-26T12:44:16;516.38;;;438.38;;
8407;SDS011;4241;48.452;9.216;2023-06-26T12:46:44;519.05;;;441.52;;
8407;SDS011;4241;48.452;9.216;2023-06-26T12:49:12;515.58;;;432.33;;
8407;SDS011;4241;48.452;9.216;2023-06-26T12:51:39;517.35;;;436.15;;
8407;SDS011;4241;48.452;9.216;2023-06-26T12:54:07;518.35;;;437.60;;
8407;SDS011;4241;48.452;9.216;2023-06-26T12:56:34;517.67;;;435.08;;
8407;SDS011;4241;48.452;9.216;2023-06-26T12:59:02;517.70;;;439.30;;
8407;SDS011;4241;48.452;9.216;2023-06-26T13:01:29;521.17;;;450.73;;
8407;SDS011;4241;48.452;9.216;2023-06-26T13:03:57;519.13;;;446.50;;
8407;SDS011;4241;48.452;9.216;2023-06-26T13:06:24;519.60;;;447.05;;
8407;SDS011;4241;48.452;9.216;2023-06-26T13:08:51;520.30;;;451.00;;
8407;SDS011;4241;48.452;9.216;2023-06-26T13:11:18;521.10;;;452.42;;
8407;SDS011;4241;48.452;9.216;2023-06-26T13:13:46;520.17;;;450.10;;
8407;SDS011;4241;48.452;9.216;2023-06-26T13:16:13;520.42;;;452.17;;
8407;SDS011;4241;48.452;9.216;2023-06-26T13:18:41;521.60;;;454.67;;
8407;SDS011;4241;48.452;9.216;2023-06-26T13:21:09;523.50;;;460.77;;
8407;SDS011;4241;48.452;9.216;2023-06-26T13:23:36;520.45;;;454.77;;
8407;SDS011;4241;48.452;9.216;2023-06-26T13:26:04;522.05;;;457.00;;
8407;SDS011;4241;48.452;9.216;2023-06-26T13:28:31;519.83;;;455.15;;
8407;SDS011;4241;48.452;9.216;2023-06-26T13:30:58;520.83;;;453.00;;
8407;SDS011;4241;48.452;9.216;2023-06-26T13:33:25;519.28;;;449.25;;
8407;SDS011;4241;48.452;9.216;2023-06-26T13:35:52;520.85;;;448.23;;
8407;SDS011;4241;48.452;9.216;2023-06-26T13:38:21;518.90;;;444.45;;
8407;SDS011;4241;48.452;9.216;2023-06-26T13:40:51;520.17;;;446.20;;
8407;SDS011;4241;48.452;9.216;2023-06-26T13:43:19;521.78;;;446.15;;
8407;SDS011;4241;48.452;9.216;2023-06-26T13:45:47;519.60;;;440.38;;
8407;SDS011;4241;48.452;9.216;2023-06-26T13:48:14;521.40;;;442.75;;
8407;SDS011;4241;48.452;9.216;2023-06-26T13:50:41;520.88;;;447.92;;
8407;SDS011;4241;48.452;9.216;2023-06-26T13:53:08;519.90;;;447.92;;
8407;SDS011;4241;48.452;9.216;2023-06-26T13:55:37;528.58;;;453.60;;
8407;SDS011;4241;48.452;9.216;2023-06-26T13:58:04;521.50;;;444.48;;
8407;SDS011;4241;48.452;9.216;2023-06-26T14:00:31;520.53;;;442.73;;
8407;SDS011;4241;48.452;9.216;2023-06-26T14:02:58;520.28;;;441.75;;
8407;SDS011;4241;48.452;9.216;2023-06-26T14:05:26;525.85;;;448.23;;
8407;SDS011;4241;48.452;9.216;2023-06-26T14:07:53;519.15;;;442.85;;
8407;SDS011;4241;48.452;9.216;2023-06-26T14:10:20;520.67;;;447.15;;
8407;SDS011;4241;48.452;9.216;2023-06-26T14:12:48;519.67;;;445.90;;
8407;SDS011;4241;48.452;9.216;2023-06-26T14:15:16;519.53;;;439.25;;
8407;SDS011;4241;48.452;9.216;2023-06-26T14:17:43;518.55;;;431.70;;
8407;SDS011;4241;48.452;9.216;2023-06-26T14:20:10;519.13;;;435.10;;
8407;SDS011;4241;48.452;9.216;2023-06-26T14:22:39;517.78;;;426.73;;
8407;SDS011;4241;48.452;9.216;2023-06-26T14:25:06;516.53;;;423.15;;